Fort Dodge Regional Airport
Tuesday 11:56 AM
Weather Sunny
Temperature 78°
Dew Point 59°
Feels Like
Relative Humidity 52
%
Visibility 10
mi
Pressure 1013.9
mb
Wind Direction ESE
Wind Speed 9
mph
Last Hour Precip 0.00
"
KFOD 281656Z AUTO 12008KT 10SM CLR 26/15 A2994 RMK AO2 SLP158 T02560150

Terminal Aerodrome Forecast (TAF)

Beginning Flight Rule Present Weather Sky Cover Ceiling Wind Visibility Wind Shear
9/28/21 12:24 PM
VFR
SKC None SE (130) 9 >6
sm
2818/2918 13008KT P6SM SKC

Recent Observations

Time Present Weather Temp DP Feels RH% Vsby Pressure Ceiling Direction Speed Gust 1h Precip
11:56AM
VFR
78° 59° 52
%
10
mi
1013.9
mb
None ESE 9
mph
0.00"
KFOD 281656Z AUTO 12008KT 10SM CLR 26/15 A2994 RMK AO2 SLP158 T02560150
10:56AM
VFR
72° 59° 64
%
10
mi
1014.2
mb
None ESE 8
mph
0.00"
KFOD 281556Z AUTO 12007KT 10SM CLR 22/15 A2995 RMK AO2 SLP162 T02220150
9:56AM
VFR
66° 58° 75
%
10
mi
1014.6
mb
None VRB 6
mph
0.00"
KFOD 281456Z AUTO VRB05KT 10SM CLR 19/14 A2996 RMK AO2 SLP167 T01890144 53007
8:56AM
VFR
61° 56° 83
%
10
mi
1013.9
mb
None ESE 10
mph
0.00"
KFOD 281356Z AUTO 12009KT 10SM CLR 16/13 A2994 RMK AO2 SLP163 T01610133
7:56AM
VFR
57° 56° 96
%
10
mi
1013.9
mb
None VRB 6
mph
0.00"
KFOD 281256Z AUTO VRB05KT 10SM CLR 14/13 A2994 RMK AO2 SLP160 T01390133
6:56AM
VFR
57° 55° 93
%
10
mi
1013.5
mb
None ESE 3
mph
0.00"
KFOD 281156Z AUTO 12003KT 10SM CLR 14/13 A2993 RMK AO2 SLP157 T01390128 10150 20111 53007
5:56AM
VFR
55° 53° 93
%
10
mi
1013.2
mb
None Calm 0.00"
KFOD 281056Z AUTO 00000KT 10SM CLR 13/12 A2992 RMK AO2 SLP152 T01280117
4:56AM
VFR
54° 52° 93
%
10
mi
1012.9
mb
None Calm 0.00"
KFOD 280956Z AUTO 00000KT 10SM CLR 12/11 A2991 RMK AO2 SLP150 T01220111
3:56AM
VFR
54° 52° 93
%
10
mi
1012.9
mb
None Calm 0.00"
KFOD 280856Z AUTO 00000KT 10SM CLR 12/11 A2991 RMK AO2 SLP148 T01220111 56001
2:56AM
VFR
53° 51° 93
%
10
mi
1012.9
mb
None Calm 0.00"
KFOD 280756Z AUTO 00000KT 10SM CLR 12/11 A2991 RMK AO2 SLP150 T01170106
1:56AM
VFR
55° 53° 93
%
10
mi
1012.9
mb
None NE 3
mph
0.00"
KFOD 280656Z AUTO 04003KT 10SM CLR 13/12 A2991 RMK AO2 SLP149 T01280117
12:56AM
VFR
59° 53° 81
%
10
mi
1012.9
mb
None NE 5
mph
0.00"
KFOD 280556Z AUTO 05004KT 10SM CLR 15/12 A2991 RMK AO2 SLP149 T01500117 10267 20144 51005
11:56PM
VFR
60° 54° 80
%
10
mi
1012.9
mb
None E 3
mph
0.00"
KFOD 280456Z AUTO 09003KT 10SM CLR 16/12 A2991 RMK AO2 SLP148 T01560122 403170106
10:56PM
VFR
61° 53° 75
%
10
mi
1012.9
mb
None E 5
mph
0.00"
KFOD 280356Z AUTO 08004KT 10SM CLR 16/12 A2991 RMK AO2 SLP148 T01610117
9:56PM
VFR
64° 54° 70
%
10
mi
1012.5
mb
None E 5
mph
0.00"
KFOD 280256Z AUTO 08004KT 10SM CLR 18/12 A2990 RMK AO2 SLP146 T01780122 51013
8:56PM
VFR
68° 54° 61
%
10
mi
1012.2
mb
None ENE 8
mph
0.00"
KFOD 280156Z AUTO 06007KT 10SM CLR 20/12 A2989 RMK AO2 SLP144 T02000122
7:56PM
VFR
74° 53° 48
%
10
mi
1011.5
mb
None NE 6
mph
0.00"
KFOD 280056Z AUTO 05005KT 10SM CLR 23/12 A2987 RMK AO2 SLP138 T02330117
6:56PM
VFR
80° 53° 80° 39
%
10
mi
1011.2
mb
None NNE 5
mph
0.00"
KFOD 272356Z AUTO 03004KT 10SM CLR 27/12 A2986 RMK AO2 SLP133 T02670117 10317 20267 53013
5:56PM
VFR
86° 53° 84° 32
%
10
mi
1010.5
mb
None NNE 5
mph
0.00"
KFOD 272256Z AUTO 03004KT 10SM CLR 30/12 A2984 RMK AO2 SLP123 T03000117
4:56PM
VFR
88° 53° 86° 30
%
10
mi
1010.2
mb
None NE 8
mph
0.00"
KFOD 272156Z AUTO 05007KT 10SM CLR 31/12 A2983 RMK AO2 SLP119 T03110117
Click here to show this page without METARs/TAFs included